Decoded Metar for LPMA (FUNCHAL/MADEIRA in PORTUGAL) (IATA:N/A) | Meteo·Mobile Aviation Weather
aviador You're here:

LPMA Decoded Metar

FUNCHAL/MADEIRA in PORTUGAL
Report Time2018-10-22 23:00:00
UTC Time2018-10-22 23:22:48
Flight Rules vfr VFR
Wind210° at 08 kt
W.Decomp.*RWY 23: 7.8 kt HW 1.9 kt LCW
W.Rank210° ranks 7
Current wind is below 210° avg. (9.9)
Visibility9999 m
Phenomena:N/A
Clouds:Few TCU Scattered 015 Hf
Expected CloudBase > 1,200 ft AGL from Temp-Dew spread
CeilingNone
Temp21°C (ISA +6)
Dew Point18°C (83% RH)
AAT20.9°C
QNH1016 hPa
Density Alt1,096 ft
Elevation180 ft
Report Wrong Elevation
Raw Report
LPMA 222300Z 21008KT 170V230 9999 SCT015 FEW015TCU 21/18 Q1016=

Extra information for LPMA:More info

Metar Taf Metar & Taf Last 4 Metars F.Rules Stats Wind Profile Meteogram Temp Stats Airport Information Weather charts Add Link Nearby VenuesMetar ALERT Operation Metar Decoded Social comments